Terminal Aerodrome Forecast
Issued by NWS Sterling, VA

Home | Current Version | Previous Version | Text Only | Print | Product List | Glossary On
Versions: 1 2 3 4 5 6 7 8 9 10 11 12 13 14 15 16 17
000
FTUS41 KLWX 030834 AAA
TAFCHO
TAF AMD
KCHO 030834Z 0309/0406 00000KT 2SM BR BKN090
     FM030930 00000KT 4SM BR OVC080
     FM031200 VRB03KT P6SM OVC035
     FM031600 11004KT 5SM -SHRA OVC035=

USA.gov is the U.S. government's official web portal to all federal, state and local government web resources and services.